Time;durP1;ratioP1;P1;durP2;ratioP2;P2;SDS_P1;SDS_P2;PMS_P1;PMS_P2;Temp;Humidity;BMP_temperature;BMP_pressure;BME280_temperature;BME280_humidity;BME280_pressure;Samples;Min_cycle;Max_cycle;Signal;HPM_P1;HPM_P2
2022/11/11 00:01:56;;;;;;;4.63;3.53;;;7.40;99.90;;;;;;5069035;28;20551;-62
2022/11/11 00:04:24;;;;;;;3.77;3.13;;;7.40;99.90;;;;;;5071935;28;20205;-67
2022/11/11 00:06:52;;;;;;;6.00;3.57;;;7.40;99.90;;;;;;5070706;28;20233;-67
2022/11/11 00:09:19;;;;;;;5.03;3.70;;;7.40;99.90;;;;;;5071196;28;20225;-62
2022/11/11 00:11:45;;;;;;;8.23;3.70;;;7.40;99.90;;;;;;5071934;28;20212;-64
2022/11/11 00:14:12;;;;;;;8.10;3.90;;;7.40;99.90;;;;;;5071572;28;20209;-68
2022/11/11 00:25:07;;;;;;;10.77;4.17;;;7.20;99.90;;;;;;5072560;28;20245;-61
2022/11/11 00:27:34;;;;;;;6.93;4.00;;;7.20;99.90;;;;;;5072227;28;20315;-62
2022/11/11 00:30:01;;;;;;;5.00;4.40;;;7.20;99.90;;;;;;5072619;28;20229;-61
2022/11/11 00:32:29;;;;;;;6.57;3.83;;;7.10;99.90;;;;;;5072460;28;20476;-62
2022/11/11 00:37:45;;;;;;;5.60;3.77;;;7.10;99.90;;;;;;5071661;28;20236;-62
2022/11/11 00:40:13;;;;;;;7.57;3.33;;;7.00;99.90;;;;;;5072434;28;20197;-62
2022/11/11 00:42:40;;;;;;;4.27;3.27;;;7.00;99.90;;;;;;5072435;28;20208;-61
2022/11/11 00:45:08;;;;;;;6.03;3.80;;;7.00;99.90;;;;;;5072500;28;20208;-62
2022/11/11 00:53:10;;;;;;;6.97;3.33;;;6.90;99.90;;;;;;5072217;28;20243;-61
2022/11/11 00:55:37;;;;;;;4.57;3.77;;;6.90;99.90;;;;;;5072296;28;20208;-62
2022/11/11 00:58:04;;;;;;;9.17;4.27;;;6.90;99.90;;;;;;5071452;28;20215;-62
2022/11/11 01:00:31;;;;;;;5.47;3.77;;;6.90;99.90;;;;;;5072350;28;20210;-61
2022/11/11 01:02:58;;;;;;;9.57;4.13;;;6.80;99.90;;;;;;5072060;28;20668;-61
2022/11/11 01:05:26;;;;;;;5.93;3.43;;;6.80;99.90;;;;;;5071968;28;20209;-62
2022/11/11 01:07:54;;;;;;;5.87;4.07;;;6.70;99.90;;;;;;5071508;28;20236;-61
2022/11/11 01:10:42;;;;;;;5.00;3.80;;;6.70;99.90;;;;;;5071712;28;20221;-62
2022/11/11 01:13:15;;;;;;;6.07;3.80;;;6.70;99.90;;;;;;5072193;28;20207;-62
2022/11/11 01:15:45;;;;;;;5.67;3.80;;;6.70;99.90;;;;;;5071923;28;20200;-62
2022/11/11 01:18:14;;;;;;;5.93;3.80;;;6.70;99.90;;;;;;5071439;28;20216;-62
2022/11/11 01:20:43;;;;;;;4.60;3.43;;;6.80;99.90;;;;;;5071799;28;20197;-61
2022/11/11 01:23:11;;;;;;;6.40;3.07;;;6.80;99.90;;;;;;5071745;28;20208;-61
2022/11/11 01:25:39;;;;;;;6.70;2.80;;;6.80;99.90;;;;;;5071579;28;20725;-62
2022/11/11 01:28:07;;;;;;;4.23;2.40;;;6.80;99.90;;;;;;5071318;28;20205;-61
2022/11/11 01:30:35;;;;;;;4.97;2.87;;;6.80;99.90;;;;;;5071551;28;20712;-61
2022/11/11 01:33:02;;;;;;;3.63;2.40;;;6.80;99.90;;;;;;5072004;28;20215;-61
2022/11/11 01:35:29;;;;;;;6.77;2.87;;;6.90;99.90;;;;;;5071514;28;20588;-62
2022/11/11 01:37:58;;;;;;;3.97;2.70;;;6.90;99.90;;;;;;5099539;22;20236;-57
2022/11/11 01:40:26;;;;;;;5.47;3.00;;;6.90;99.90;;;;;;5076153;28;20201;-57
2022/11/11 01:43:08;;;;;;;3.43;2.70;;;6.90;99.90;;;;;;5072679;28;20207;-57
2022/11/11 01:45:58;;;;;;;6.73;3.57;;;6.90;99.90;;;;;;5071965;28;20711;-57
2022/11/11 01:51:23;;;;;;;6.00;3.10;;;6.80;99.90;;;;;;5052209;28;20614;-57
2022/11/11 01:53:58;;;;;;;7.90;3.87;;;6.80;99.90;;;;;;5052030;28;20201;-57
2022/11/11 01:56:25;;;;;;;7.07;3.40;;;6.80;99.90;;;;;;5051966;28;20321;-57
2022/11/11 01:58:55;;;;;;;7.13;3.30;;;6.80;99.90;;;;;;5051792;28;20217;-57
2022/11/11 02:01:22;;;;;;;4.90;2.93;;;6.80;99.90;;;;;;5052169;28;20225;-57
2022/11/11 02:06:39;;;;;;;5.43;3.20;;;6.80;99.90;;;;;;5052148;28;20223;-57
2022/11/11 02:09:08;;;;;;;7.57;3.37;;;6.80;99.90;;;;;;5051610;28;20273;-56
2022/11/11 02:14:38;;;;;;;5.70;3.13;;;6.80;99.90;;;;;;5055847;28;20680;-58
2022/11/11 02:17:08;;;;;;;5.10;2.97;;;6.70;99.90;;;;;;5055461;28;20330;-56
2022/11/11 02:19:44;;;;;;;6.63;3.27;;;6.60;99.90;;;;;;5056158;28;20209;-55
2022/11/11 02:22:16;;;;;;;6.80;3.30;;;6.50;99.90;;;;;;5056262;28;20229;-55
2022/11/11 02:24:45;;;;;;;5.70;3.10;;;6.50;99.90;;;;;;5055788;28;20208;-55
2022/11/11 02:27:15;;;;;;;4.20;3.17;;;6.60;99.90;;;;;;5055387;28;20232;-56
2022/11/11 02:29:44;;;;;;;7.80;3.50;;;6.60;99.90;;;;;;5056099;28;20214;-57
2022/11/11 02:32:11;;;;;;;3.93;3.23;;;6.70;99.90;;;;;;5055856;28;20302;-56
2022/11/11 02:34:38;;;;;;;7.50;3.30;;;6.70;99.90;;;;;;5056295;28;20224;-57
2022/11/11 02:37:07;;;;;;;4.27;3.03;;;6.60;99.90;;;;;;5055308;28;20744;-57
2022/11/11 02:39:37;;;;;;;4.67;3.30;;;6.50;99.90;;;;;;5055817;28;20697;-56
2022/11/11 02:42:09;;;;;;;4.13;3.13;;;6.40;99.90;;;;;;5055612;28;20608;-56
2022/11/11 02:44:37;;;;;;;5.63;3.03;;;6.40;99.90;;;;;;5054972;28;20669;-56
2022/11/11 02:47:04;;;;;;;6.27;3.40;;;6.40;99.90;;;;;;5054523;28;20263;-56
2022/11/11 02:49:31;;;;;;;5.10;3.03;;;6.30;99.90;;;;;;5055277;28;20212;-57
2022/11/11 02:51:58;;;;;;;6.43;3.20;;;6.40;99.90;;;;;;5054753;28;20233;-57
2022/11/11 02:54:25;;;;;;;4.40;3.30;;;6.40;99.90;;;;;;5054813;28;20234;-58
2022/11/11 02:57:07;;;;;;;6.37;3.30;;;6.30;99.90;;;;;;5053912;28;20648;-56
2022/11/11 02:59:36;;;;;;;4.93;3.63;;;6.30;99.90;;;;;;5055166;28;20201;-56
2022/11/11 03:02:03;;;;;;;4.60;3.20;;;6.20;99.90;;;;;;5054745;28;20277;-57
2022/11/11 03:04:30;;;;;;;7.63;3.40;;;6.20;99.90;;;;;;5054614;28;20634;-56
2022/11/11 03:06:57;;;;;;;3.57;3.10;;;6.20;99.90;;;;;;5054483;28;20247;-56
2022/11/11 03:09:24;;;;;;;4.57;3.37;;;6.10;99.90;;;;;;5054620;28;20292;-56
2022/11/11 03:11:51;;;;;;;6.33;3.33;;;6.20;99.90;;;;;;5054678;28;20235;-56
2022/11/11 03:14:18;;;;;;;4.47;3.60;;;6.20;99.90;;;;;;5054923;28;20308;-56
2022/11/11 03:19:42;;;;;;;8.03;3.80;;;6.20;99.90;;;;;;4992959;28;20204;-56
2022/11/11 03:22:08;;;;;;;5.23;3.30;;;6.20;99.90;;;;;;5038555;28;20674;-56
2022/11/11 03:27:19;;;;;;;5.90;3.63;;;6.30;99.90;;;;;;5053928;28;20220;-57
2022/11/11 03:29:46;;;;;;;4.97;3.17;;;6.40;99.90;;;;;;5054267;28;20728;-57
2022/11/11 03:32:14;;;;;;;4.20;3.13;;;6.40;99.90;;;;;;5054826;28;20210;-57
2022/11/11 03:34:41;;;;;;;5.57;3.17;;;6.40;99.90;;;;;;5054759;28;20206;-58
2022/11/11 03:39:54;;;;;;;6.47;3.17;;;6.40;99.90;;;;;;5054256;28;20578;-56
2022/11/11 03:42:21;;;;;;;4.37;3.30;;;6.40;99.90;;;;;;5054080;28;20205;-56
2022/11/11 03:44:48;;;;;;;6.67;3.27;;;6.40;99.90;;;;;;5054271;28;20206;-56
2022/11/11 03:47:16;;;;;;;4.37;3.50;;;6.50;99.90;;;;;;5054078;28;20316;-56
2022/11/11 03:49:44;;;;;;;6.53;3.13;;;6.50;99.90;;;;;;5054168;28;20673;-56
2022/11/11 03:52:12;;;;;;;6.67;3.53;;;6.50;99.90;;;;;;5054210;28;20320;-56
2022/11/11 03:54:39;;;;;;;4.97;3.50;;;6.50;99.90;;;;;;5054179;28;20205;-56
2022/11/11 03:59:51;;;;;;;6.00;3.27;;;6.50;99.90;;;;;;5054435;28;20229;-56
2022/11/11 04:10:35;;;;;;;6.20;3.70;;;6.40;99.90;;;;;;5053871;28;20247;-56
2022/11/11 04:24:02;;;;;;;4.77;3.67;;;6.50;99.90;;;;;;5053621;28;20323;-56
2022/11/11 04:26:28;;;;;;;5.53;3.20;;;6.40;99.90;;;;;;5053551;28;20312;-57
2022/11/11 04:32:34;;;;;;;4.50;3.33;;;6.40;99.90;;;;;;5053578;28;20763;-56
2022/11/11 04:34:27;;;;;;;7.60;3.60;;;6.40;99.90;;;;;;5053295;28;20233;-56
2022/11/11 04:36:54;;;;;;;6.67;3.47;;;6.30;99.90;;;;;;5053590;28;20237;-57
2022/11/11 04:42:11;;;;;;;4.30;3.30;;;6.30;99.90;;;;;;4996717;28;20203;-56
2022/11/11 04:47:22;;;;;;;4.03;3.50;;;6.30;99.90;;;;;;5052865;28;20295;-57
2022/11/11 04:49:50;;;;;;;7.90;3.87;;;6.30;99.90;;;;;;5053469;28;20214;-56
2022/11/11 04:52:26;;;;;;;5.03;3.90;;;6.30;99.90;;;;;;5052831;28;20264;-57
2022/11/11 04:57:40;;;;;;;5.97;3.97;;;6.20;99.90;;;;;;5052891;28;20298;-56
2022/11/11 05:00:09;;;;;;;4.33;3.83;;;6.20;99.90;;;;;;5053235;28;20212;-56
2022/11/11 05:05:21;;;;;;;6.60;4.40;;;6.20;99.90;;;;;;5052825;28;20200;-57
2022/11/11 05:10:33;;;;;;;5.43;3.70;;;6.20;99.90;;;;;;5053667;28;20236;-56
2022/11/11 05:21:23;;;;;;;6.20;3.60;;;6.10;99.90;;;;;;5054003;28;20237;-56
2022/11/11 05:26:34;;;;;;;5.07;3.80;;;6.20;99.90;;;;;;5052652;28;20224;-57
2022/11/11 05:29:01;;;;;;;6.27;4.13;;;6.00;99.90;;;;;;5052279;28;20213;-57
2022/11/11 05:31:29;;;;;;;7.07;3.93;;;6.00;99.90;;;;;;5053536;28;20229;-56
2022/11/11 05:33:56;;;;;;;5.30;3.70;;;6.10;99.90;;;;;;5053794;28;20213;-57
2022/11/11 05:36:24;;;;;;;7.57;3.40;;;6.10;99.90;;;;;;5053213;28;20287;-56
2022/11/11 05:38:51;;;;;;;7.77;4.03;;;6.10;99.90;;;;;;5052442;28;20216;-57
2022/11/11 05:41:18;;;;;;;6.03;3.97;;;6.10;99.90;;;;;;5053479;28;20213;-57
2022/11/11 05:43:45;;;;;;;5.23;3.70;;;6.10;99.90;;;;;;5052931;28;20206;-57
2022/11/11 05:46:12;;;;;;;5.33;3.67;;;6.00;99.90;;;;;;5054976;28;20232;-56
2022/11/11 05:49:13;;;;;;;7.63;4.10;;;6.00;99.90;;;;;;5056318;28;20213;-56
2022/11/11 05:51:30;;;;;;;5.00;3.73;;;6.00;99.90;;;;;;5056441;28;20654;-56
2022/11/11 05:53:58;;;;;;;6.53;4.17;;;5.90;99.90;;;;;;5056368;28;20634;-56
2022/11/11 05:56:25;;;;;;;6.00;4.30;;;5.90;99.90;;;;;;5056348;28;20221;-56
2022/11/11 05:58:52;;;;;;;5.90;4.10;;;6.00;99.90;;;;;;5056142;28;20681;-57
2022/11/11 06:01:19;;;;;;;7.00;3.90;;;6.00;99.90;;;;;;5057256;28;20695;-56
2022/11/11 06:03:46;;;;;;;6.50;3.60;;;6.10;99.90;;;;;;5057062;28;20578;-57
2022/11/11 06:06:14;;;;;;;7.63;4.70;;;6.00;99.90;;;;;;5056700;28;20221;-56
2022/11/11 06:08:42;;;;;;;5.17;3.67;;;6.00;99.90;;;;;;5057001;28;20210;-55
2022/11/11 06:11:09;;;;;;;7.23;4.27;;;6.00;99.90;;;;;;5056812;28;20600;-56
2022/11/11 06:13:36;;;;;;;8.50;3.97;;;6.00;99.90;;;;;;5057427;28;20205;-56
2022/11/11 06:16:03;;;;;;;6.07;4.23;;;6.00;99.90;;;;;;5056357;28;20741;-57
2022/11/11 06:18:30;;;;;;;5.27;4.20;;;5.90;99.90;;;;;;5056160;28;20596;-56
2022/11/11 06:20:58;;;;;;;9.30;4.07;;;6.00;99.90;;;;;;5056569;28;20312;-56
2022/11/11 06:23:26;;;;;;;6.43;4.47;;;6.00;99.90;;;;;;5057254;28;20209;-55
2022/11/11 06:26:13;;;;;;;5.57;4.20;;;6.00;99.90;;;;;;5056855;28;20206;-56
2022/11/11 06:28:41;;;;;;;8.57;4.20;;;6.00;99.90;;;;;;5055736;28;20665;-56
2022/11/11 06:31:09;;;;;;;5.93;4.80;;;6.00;99.90;;;;;;5056434;28;20309;-57
2022/11/11 06:33:37;;;;;;;7.03;4.87;;;5.90;99.90;;;;;;5055960;28;20209;-57
2022/11/11 06:36:05;;;;;;;9.20;5.10;;;5.90;99.90;;;;;;5055767;28;20212;-57
2022/11/11 06:38:34;;;;;;;8.40;4.80;;;5.90;99.90;;;;;;5054510;28;20325;-57
2022/11/11 06:41:02;;;;;;;6.17;5.03;;;6.00;99.90;;;;;;5055783;28;20197;-57
2022/11/11 06:43:29;;;;;;;8.83;5.13;;;6.00;99.90;;;;;;5055317;28;20212;-56
2022/11/11 06:45:56;;;;;;;10.23;5.30;;;6.10;99.90;;;;;;5055256;28;20259;-56
2022/11/11 06:48:24;;;;;;;9.90;6.07;;;6.30;99.90;;;;;;5054497;28;20547;-56
2022/11/11 06:50:51;;;;;;;8.13;5.03;;;6.40;99.90;;;;;;5054903;28;20209;-56
2022/11/11 06:53:20;;;;;;;8.63;5.63;;;6.50;99.90;;;;;;5055104;28;20205;-57
2022/11/11 06:55:47;;;;;;;8.93;4.70;;;6.60;99.90;;;;;;5054749;28;20206;-57
2022/11/11 06:58:16;;;;;;;6.60;4.70;;;6.70;99.90;;;;;;5054029;28;20227;-56
2022/11/11 07:00:45;;;;;;;7.57;5.27;;;6.80;99.90;;;;;;5054810;28;20689;-56
2022/11/11 07:03:14;;;;;;;7.37;5.00;;;6.90;99.90;;;;;;5054925;28;20292;-56
2022/11/11 07:05:41;;;;;;;17.93;6.40;;;7.00;99.90;;;;;;5054991;28;20207;-60
2022/11/11 07:08:10;;;;;;;6.80;5.00;;;6.90;99.90;;;;;;5054882;28;20226;-56
2022/11/11 07:10:40;;;;;;;7.17;4.90;;;7.00;99.90;;;;;;5054755;28;20205;-56
2022/11/11 07:13:07;;;;;;;6.20;5.07;;;7.10;99.90;;;;;;5055287;28;20252;-55
2022/11/11 07:15:37;;;;;;;7.03;4.40;;;7.20;99.90;;;;;;5054852;28;20212;-56
2022/11/11 07:18:03;;;;;;;6.00;4.30;;;7.40;99.90;;;;;;5053861;28;20225;-56
2022/11/11 07:20:31;;;;;;;5.97;4.50;;;7.50;99.90;;;;;;5054323;28;20672;-56
2022/11/11 07:22:57;;;;;;;7.00;4.83;;;7.50;99.90;;;;;;5054115;28;20198;-56
2022/11/11 07:25:24;;;;;;;5.43;4.67;;;7.50;99.90;;;;;;5054190;28;20201;-56
2022/11/11 07:27:51;;;;;;;6.00;4.80;;;7.60;99.90;;;;;;5053421;28;20329;-56
2022/11/11 07:30:19;;;;;;;7.83;4.87;;;7.60;99.90;;;;;;5054350;28;20213;-56
2022/11/11 07:32:48;;;;;;;7.03;4.90;;;7.70;99.90;;;;;;5054137;28;20236;-56
2022/11/11 07:35:16;;;;;;;7.77;4.83;;;7.70;99.90;;;;;;5054109;28;20209;-56
2022/11/11 07:37:44;;;;;;;6.03;4.80;;;7.90;99.90;;;;;;5053781;28;20269;-56
2022/11/11 07:40:12;;;;;;;8.27;4.63;;;8.10;99.90;;;;;;5054276;28;20212;-56
2022/11/11 07:42:40;;;;;;;7.53;4.90;;;8.40;99.90;;;;;;5049254;28;20442;-57
2022/11/11 07:45:09;;;;;;;7.93;4.80;;;8.60;99.90;;;;;;5056188;28;20447;-57
2022/11/11 07:47:36;;;;;;;11.80;5.20;;;8.70;99.90;;;;;;5071970;28;20229;-57
2022/11/11 07:50:05;;;;;;;7.10;4.33;;;8.70;99.90;;;;;;5072052;28;20699;-57
2022/11/11 07:52:32;;;;;;;7.30;4.27;;;8.80;99.90;;;;;;5071707;28;20227;-57
2022/11/11 07:54:59;;;;;;;6.20;4.30;;;8.80;99.90;;;;;;5072361;28;20282;-57
2022/11/11 07:57:26;;;;;;;6.30;4.60;;;8.70;99.90;;;;;;5071693;28;20308;-57
2022/11/11 07:59:53;;;;;;;6.50;4.53;;;8.70;99.90;;;;;;5072126;28;20219;-57
2022/11/11 08:02:20;;;;;;;7.43;4.47;;;8.80;99.90;;;;;;5072161;28;20205;-57
2022/11/11 08:04:47;;;;;;;6.50;4.13;;;8.80;99.90;;;;;;5072112;28;20213;-57
2022/11/11 08:07:15;;;;;;;6.03;4.50;;;8.90;99.90;;;;;;5072611;28;20263;-60
2022/11/11 08:09:42;;;;;;;8.43;4.33;;;8.70;99.90;;;;;;5072243;28;20208;-60
2022/11/11 08:14:53;;;;;;;5.53;4.30;;;8.60;99.90;;;;;;5072539;28;20215;-60
2022/11/11 08:17:20;;;;;;;5.33;4.10;;;8.50;99.90;;;;;;5072600;28;20239;-57
2022/11/11 08:19:47;;;;;;;6.50;4.37;;;8.50;99.90;;;;;;5073052;28;20208;-57
2022/11/11 08:22:15;;;;;;;7.17;4.10;;;8.40;99.90;;;;;;5072986;28;20197;-57
2022/11/11 08:24:42;;;;;;;5.77;4.10;;;8.40;99.90;;;;;;5072620;28;20215;-57
2022/11/11 08:27:09;;;;;;;8.57;4.53;;;8.40;99.90;;;;;;5072762;28;20592;-57
2022/11/11 08:29:36;;;;;;;6.23;4.63;;;8.60;99.90;;;;;;5072387;28;20209;-57
2022/11/11 08:32:03;;;;;;;6.60;4.87;;;8.80;99.90;;;;;;5072626;28;20216;-57
2022/11/11 08:34:30;;;;;;;7.87;4.43;;;9.00;99.90;;;;;;5072411;28;20684;-57
2022/11/11 08:36:57;;;;;;;6.60;4.73;;;9.00;99.90;;;;;;5072709;28;20268;-57
2022/11/11 08:39:25;;;;;;;6.87;4.83;;;9.20;99.90;;;;;;5072314;28;20716;-57
2022/11/11 08:41:52;;;;;;;8.77;4.80;;;9.30;99.90;;;;;;5072777;28;20206;-57
2022/11/11 08:44:19;;;;;;;7.47;4.57;;;9.40;99.90;;;;;;5072989;28;20215;-58
2022/11/11 08:46:45;;;;;;;6.77;4.97;;;9.60;99.90;;;;;;5072807;28;20231;-58
2022/11/11 08:49:12;;;;;;;8.17;4.47;;;9.80;99.90;;;;;;5072312;28;20320;-58
2022/11/11 08:51:39;;;;;;;6.43;4.40;;;9.90;99.90;;;;;;5073020;28;20565;-58
2022/11/11 08:54:06;;;;;;;6.00;4.00;;;10.10;99.90;;;;;;5072842;28;20236;-58
2022/11/11 08:56:34;;;;;;;8.37;4.40;;;10.20;99.90;;;;;;5072573;28;20704;-58
2022/11/11 08:59:01;;;;;;;5.60;4.07;;;10.20;99.90;;;;;;5072268;28;20215;-57
2022/11/11 09:01:28;;;;;;;6.17;3.80;;;10.40;99.90;;;;;;5072834;28;20208;-57
2022/11/11 09:03:55;;;;;;;6.37;4.10;;;10.50;99.90;;;;;;5072829;28;20632;-57
2022/11/11 09:06:24;;;;;;;7.23;4.03;;;10.60;99.90;;;;;;5072986;28;20225;-57
2022/11/11 09:08:51;;;;;;;6.47;4.40;;;10.70;99.90;;;;;;5072369;28;20208;-59
2022/11/11 09:11:17;;;;;;;5.37;3.90;;;10.90;99.90;;;;;;5072424;28;20215;-58
2022/11/11 09:13:47;;;;;;;6.17;3.80;;;11.10;99.90;;;;;;5073316;28;20211;-58
2022/11/11 09:16:13;;;;;;;4.80;4.00;;;11.20;99.90;;;;;;5073017;28;20311;-58
2022/11/11 09:18:40;;;;;;;5.47;3.80;;;11.30;99.90;;;;;;5072610;28;20205;-58
2022/11/11 09:21:07;;;;;;;5.93;3.40;;;11.50;99.90;;;;;;5077537;28;20205;-58
2022/11/11 09:23:34;;;;;;;5.17;3.50;;;11.50;99.90;;;;;;5077395;28;20200;-58
2022/11/11 09:26:03;;;;;;;5.43;3.40;;;11.50;99.90;;;;;;5077619;28;20761;-58
2022/11/11 09:28:32;;;;;;;3.87;3.37;;;11.60;99.90;;;;;;5077732;28;20213;-59
2022/11/11 09:31:01;;;;;;;4.93;3.13;;;11.80;99.90;;;;;;5077729;28;20236;-59
2022/11/11 09:33:28;;;;;;;4.90;3.40;;;12.00;99.90;;;;;;5077773;28;20229;-59
2022/11/11 09:35:57;;;;;;;5.33;2.80;;;12.10;99.90;;;;;;5078534;28;20687;-57
2022/11/11 09:38:24;;;;;;;5.23;3.03;;;12.10;99.90;;;;;;5077354;28;20205;-57
2022/11/11 09:41:00;;;;;;;4.07;2.97;;;12.30;99.90;;;;;;5077031;28;20688;-57
2022/11/11 09:43:39;;;;;;;5.50;3.60;;;12.30;99.90;;;;;;5076877;28;20207;-58
2022/11/11 09:46:21;;;;;;;6.03;3.20;;;12.40;99.90;;;;;;5076642;28;20763;-57
2022/11/11 09:49:08;;;;;;;7.07;3.30;;;12.60;99.90;;;;;;5075829;28;20223;-57
2022/11/11 09:51:47;;;;;;;5.57;3.20;;;12.70;99.90;;;;;;5076482;28;20205;-58
2022/11/11 09:54:18;;;;;;;5.50;3.23;;;12.90;99.90;;;;;;5076533;28;20234;-58
2022/11/11 09:56:46;;;;;;;4.17;3.00;;;13.10;99.90;;;;;;5076831;28;20598;-58
2022/11/11 09:59:17;;;;;;;4.87;2.97;;;13.20;99.90;;;;;;5076171;28;20208;-58
2022/11/11 10:01:52;;;;;;;4.10;2.90;;;13.10;99.90;;;;;;5076362;28;20258;-58
2022/11/11 10:04:30;;;;;;;6.80;3.00;;;13.20;99.90;;;;;;5076102;28;20206;-58
2022/11/11 10:07:03;;;;;;;6.80;3.30;;;13.30;99.90;;;;;;5076717;28;20224;-58
2022/11/11 10:09:40;;;;;;;4.87;3.17;;;13.30;99.90;;;;;;5076449;28;20236;-57
2022/11/11 10:12:11;;;;;;;7.10;3.17;;;13.10;99.90;;;;;;5071501;28;20231;-57
2022/11/11 10:14:41;;;;;;;6.10;3.03;;;13.00;99.90;;;;;;5056232;28;20220;-60
2022/11/11 10:17:23;;;;;;;4.47;3.07;;;13.00;99.90;;;;;;5056429;28;20237;-58
2022/11/11 10:19:59;;;;;;;5.40;3.33;;;13.20;99.90;;;;;;5059723;28;20218;-58
2022/11/11 10:22:31;;;;;;;5.20;3.03;;;13.10;99.90;;;;;;5074423;28;20230;-57
2022/11/11 10:25:07;;;;;;;4.13;3.10;;;13.20;99.90;;;;;;5074344;28;20650;-57
2022/11/11 10:27:34;;;;;;;5.03;3.07;;;13.20;99.90;;;;;;5074103;28;20220;-57
2022/11/11 10:30:14;;;;;;;4.40;3.00;;;13.40;99.90;;;;;;5073524;28;20295;-59
2022/11/11 10:32:44;;;;;;;5.13;3.17;;;13.60;99.90;;;;;;5065560;28;20259;-59
2022/11/11 10:35:16;;;;;;;5.73;2.67;;;13.60;99.90;;;;;;5054000;28;20222;-58
2022/11/11 10:37:43;;;;;;;5.00;2.80;;;13.70;99.90;;;;;;5053472;28;20626;-59
2022/11/11 10:40:20;;;;;;;5.40;2.93;;;13.90;99.90;;;;;;5054062;28;20232;-58
2022/11/11 10:42:47;;;;;;;5.47;2.80;;;14.20;99.90;;;;;;5054160;28;20240;-58
2022/11/11 10:45:23;;;;;;;6.77;4.47;;;14.40;99.90;;;;;;5055479;28;20649;-62
2022/11/11 10:47:58;;;;;;;7.43;2.67;;;14.70;99.90;;;;;;5053662;28;20232;-62
2022/11/11 10:50:30;;;;;;;2.70;2.23;;;14.90;99.90;;;;;;5054289;28;20592;-60
2022/11/11 10:53:03;;;;;;;4.07;2.50;;;15.20;99.90;;;;;;5055162;28;20233;-62
2022/11/11 10:55:35;;;;;;;3.97;2.20;;;15.20;99.90;;;;;;5059199;28;20768;-61
2022/11/11 10:58:11;;;;;;;5.43;2.80;;;15.20;99.90;;;;;;5054208;28;20236;-61
2022/11/11 11:00:40;;;;;;;5.73;2.50;;;15.30;99.90;;;;;;5054640;28;20719;-61
2022/11/11 11:03:14;;;;;;;5.27;3.13;;;15.30;99.90;;;;;;5054608;28;20202;-62
2022/11/11 11:05:47;;;;;;;3.17;2.20;;;15.40;99.90;;;;;;5053989;28;20209;-60
2022/11/11 11:08:19;;;;;;;9.47;3.63;;;15.50;99.90;;;;;;5056121;28;20237;-65
2022/11/11 11:10:50;;;;;;;7.93;2.90;;;15.60;99.90;;;;;;5047728;28;20212;-64
2022/11/11 11:13:21;;;;;;;5.90;2.70;;;15.50;99.90;;;;;;5056052;28;20225;-62
2022/11/11 11:15:56;;;;;;;6.20;3.00;;;15.40;99.90;;;;;;5055784;28;20212;-63
2022/11/11 11:18:25;;;;;;;6.00;2.90;;;15.40;99.90;;;;;;5054533;28;20215;-62
2022/11/11 11:20:58;;;;;;;7.17;2.97;;;15.40;99.90;;;;;;5055267;28;20206;-63
2022/11/11 11:23:39;;;;;;;4.60;2.47;;;15.40;99.90;;;;;;5055607;28;20206;-62
2022/11/11 11:26:07;;;;;;;4.27;2.60;;;15.40;99.90;;;;;;5053765;28;20270;-60
2022/11/11 11:28:34;;;;;;;4.63;2.70;;;15.30;99.90;;;;;;5053233;28;20212;-62
2022/11/11 11:31:03;;;;;;;3.77;2.33;;;15.30;99.90;;;;;;5054252;28;20217;-61
2022/11/11 11:33:51;;;;;;;5.30;2.80;;;15.40;99.90;;;;;;5053439;28;20230;-61
2022/11/11 11:36:19;;;;;;;4.20;2.40;;;15.50;99.90;;;;;;5054060;28;20260;-62
2022/11/11 11:38:49;;;;;;;6.13;2.47;;;15.70;99.90;;;;;;5056204;28;20209;-62
2022/11/11 11:41:17;;;;;;;6.40;2.67;;;15.60;99.90;;;;;;5055084;28;20216;-65
2022/11/11 11:43:45;;;;;;;9.50;2.80;;;15.70;99.90;;;;;;5052553;28;20209;-60
2022/11/11 11:46:19;;;;;;;6.28;2.50;;;15.80;99.90;;;;;;5053033;28;20241;-59
2022/11/11 11:49:02;;;;;;;3.53;2.43;;;15.90;99.90;;;;;;5052515;28;20250;-58
2022/11/11 11:51:35;;;;;;;4.20;2.20;;;16.00;99.90;;;;;;5052845;28;20665;-59
2022/11/11 11:54:17;;;;;;;5.40;2.33;;;16.20;99.90;;;;;;5052354;28;20725;-61
2022/11/11 11:56:47;;;;;;;6.00;2.38;;;16.20;99.90;;;;;;5053351;28;20657;-61
2022/11/11 11:59:21;;;;;;;2.97;2.20;;;16.30;99.90;;;;;;5052354;28;20259;-60
2022/11/11 12:01:57;;;;;;;4.43;2.17;;;16.40;99.90;;;;;;5052437;28;20415;-60
2022/11/11 12:05:01;;;;;;;5.25;2.00;;;16.50;99.90;;;;;;5052666;28;20223;-60
2022/11/11 12:07:45;;;;;;;2.93;2.00;;;16.60;99.90;;;;;;5052839;28;20225;-59
2022/11/11 12:10:25;;;;;;;2.92;1.92;;;16.70;99.90;;;;;;5052297;28;20224;-58
2022/11/11 12:13:00;;;;;;;4.25;2.35;;;16.80;99.90;;;;;;5052236;28;20723;-59
2022/11/11 12:15:33;;;;;;;4.03;2.10;;;16.90;99.90;;;;;;5052629;28;20233;-61
2022/11/11 12:18:18;;;;;;;3.80;2.10;;;17.00;99.90;;;;;;5051458;28;20229;-61
2022/11/11 12:20:51;;;;;;;3.03;2.08;;;16.90;99.90;;;;;;5052832;28;20214;-60
2022/11/11 12:23:38;;;;;;;4.70;2.08;;;16.80;99.90;;;;;;5031900;28;20203;-60
2022/11/11 12:26:11;;;;;;;4.70;2.58;;;16.70;99.90;;;;;;5032918;28;20210;-60
2022/11/11 12:28:51;;;;;;;3.88;2.00;;;16.70;99.90;;;;;;5032492;28;20210;-64
2022/11/11 12:31:30;;;;;;;3.63;1.90;;;16.60;99.90;;;;;;5033010;28;20210;-60
2022/11/11 12:34:26;;;;;;;2.40;1.92;;;16.60;99.90;;;;;;5044163;28;20209;-60
2022/11/11 12:37:03;;;;;;;5.90;2.38;;;16.70;99.90;;;;;;5025194;28;20230;-59
2022/11/11 12:39:44;;;;;;;3.00;1.73;;;16.80;99.90;;;;;;5051861;28;20201;-59
2022/11/11 12:42:22;;;;;;;3.50;1.90;;;16.80;99.90;;;;;;5053432;28;20210;-59
2022/11/11 12:44:59;;;;;;;5.25;2.70;;;17.00;99.90;;;;;;5053391;28;20205;-60
2022/11/11 12:47:41;;;;;;;3.28;1.70;;;17.10;99.90;;;;;;5052808;28;20239;-59
2022/11/11 12:50:19;;;;;;;2.25;1.60;;;17.10;99.90;;;;;;5051121;28;20213;-60
2022/11/11 12:53:00;;;;;;;2.67;1.67;;;17.20;99.90;;;;;;5053153;28;20226;-60
2022/11/11 12:55:35;;;;;;;3.55;1.58;;;17.30;99.90;;;;;;5052746;28;20665;-60
2022/11/11 12:58:13;;;;;;;3.67;1.95;;;17.40;99.90;;;;;;5052371;28;20283;-59
2022/11/11 13:00:49;;;;;;;2.58;1.40;;;17.50;99.90;;;;;;5057133;28;20201;-60
2022/11/11 13:03:32;;;;;;;13.13;3.25;;;17.50;99.90;;;;;;5051172;28;20193;-61
2022/11/11 13:06:10;;;;;;;4.03;1.77;;;17.50;99.90;;;;;;5053233;28;20317;-61
2022/11/11 13:09:03;;;;;;;4.88;1.52;;;17.60;99.90;;;;;;5052782;28;20716;-61
2022/11/11 13:11:39;;;;;;;4.00;1.52;;;17.60;99.90;;;;;;5052140;28;20218;-61
2022/11/11 13:14:21;;;;;;;3.80;1.65;;;17.70;99.90;;;;;;5051632;28;20221;-60
2022/11/11 13:16:50;;;;;;;2.72;1.40;;;17.80;99.90;;;;;;5051999;28;20271;-59
2022/11/11 13:19:23;;;;;;;6.30;2.80;;;17.80;99.90;;;;;;5051902;28;20216;-59
2022/11/11 13:21:54;;;;;;;6.75;2.55;;;17.60;99.90;;;;;;5052202;28;20213;-59
2022/11/11 13:24:24;;;;;;;4.55;2.40;;;17.30;99.90;;;;;;5059869;28;20209;-58
2022/11/11 13:26:56;;;;;;;9.35;7.38;;;17.20;99.90;;;;;;5072789;28;20229;-59
2022/11/11 13:29:50;;;;;;;4.68;2.80;;;17.10;99.90;;;;;;5071963;28;20255;-59
2022/11/11 13:32:24;;;;;;;5.20;2.47;;;16.90;99.90;;;;;;5072994;28;20212;-58
2022/11/11 13:34:52;;;;;;;3.72;2.78;;;16.70;99.90;;;;;;5073445;28;20597;-58
2022/11/11 13:37:26;;;;;;;7.10;2.55;;;16.70;99.90;;;;;;5073570;28;20233;-58
2022/11/11 13:40:00;;;;;;;5.05;2.45;;;16.60;99.90;;;;;;5072564;28;20209;-57
2022/11/11 13:42:31;;;;;;;5.55;2.50;;;16.40;99.90;;;;;;5072995;28;20209;-57
2022/11/11 13:45:03;;;;;;;66.03;53.47;;;16.50;99.90;;;;;;5073346;28;20209;-57
2022/11/11 13:47:34;;;;;;;7.23;4.50;;;16.60;99.90;;;;;;5072966;28;20225;-58
2022/11/11 13:50:05;;;;;;;3.15;2.25;;;16.70;99.90;;;;;;5072113;28;20215;-58
2022/11/11 13:52:35;;;;;;;3.28;2.15;;;16.80;99.90;;;;;;5072968;28;20234;-57
2022/11/11 13:55:07;;;;;;;4.25;2.10;;;16.80;99.90;;;;;;5072690;28;20205;-57
2022/11/11 13:57:42;;;;;;;4.13;2.35;;;16.60;99.90;;;;;;5072410;28;20225;-57
2022/11/11 14:00:27;;;;;;;5.57;2.33;;;16.50;99.90;;;;;;5071744;28;20231;-58
2022/11/11 14:03:27;;;;;;;2.60;1.90;;;16.50;99.90;;;;;;5072287;28;20236;-57
2022/11/11 14:06:27;;;;;;;31.55;5.70;;;16.50;99.90;;;;;;5072057;28;20239;-58
2022/11/11 14:08:55;;;;;;;32.00;5.20;;;16.60;99.90;;;;;;5075622;28;20744;-60
2022/11/11 14:11:31;;;;;;;9.23;2.60;;;16.60;99.90;;;;;;5076526;28;20228;-58
2022/11/11 14:14:19;;;;;;;19.75;3.75;;;16.60;99.90;;;;;;5075783;28;20308;-58
2022/11/11 14:17:01;;;;;;;55.58;6.75;;;16.40;99.90;;;;;;5075893;28;20229;-57
2022/11/11 14:19:32;;;;;;;13.43;3.80;;;16.30;99.90;;;;;;5075195;28;20300;-57
2022/11/11 14:22:01;;;;;;;5.32;2.63;;;16.20;99.90;;;;;;5075608;28;20639;-57
2022/11/11 14:24:35;;;;;;;77.30;8.93;;;16.20;99.90;;;;;;5075574;28;20633;-57
2022/11/11 14:27:15;;;;;;;46.40;7.38;;;16.20;99.90;;;;;;5075409;28;20228;-60
2022/11/11 14:29:49;;;;;;;51.88;8.32;;;16.30;99.90;;;;;;5075154;28;20209;-56
2022/11/11 14:32:34;;;;;;;16.13;3.60;;;16.30;99.90;;;;;;5075582;28;20207;-58
2022/11/11 14:35:18;;;;;;;32.92;5.80;;;16.20;99.90;;;;;;5075431;28;20221;-58
2022/11/11 14:38:18;;;;;;;26.92;4.88;;;16.20;99.90;;;;;;5075333;28;20232;-58
2022/11/11 14:40:45;;;;;;;89.53;10.73;;;16.10;99.90;;;;;;5075181;28;20676;-59